Time;durP1;ratioP1;P1;durP2;ratioP2;P2;SDS_P1;SDS_P2;PMS_P1;PMS_P2;Temp;Humidity;BMP_temperature;BMP_pressure;BME280_temperature;BME280_humidity;BME280_pressure;Samples;Min_cycle;Max_cycle;Signal;HPM_P1;HPM_P2
2022/06/03 00:00:11;;;;;;;2.28;2.08;;;14.80;94.50;;;;;;4202409;28;20875;-76
2022/06/03 00:02:34;;;;;;;4.47;2.72;;;14.80;94.60;;;;;;4207918;28;20064;-76
2022/06/03 00:05:23;;;;;;;3.22;2.50;;;14.70;94.70;;;;;;4214044;28;20131;-76
2022/06/03 00:07:47;;;;;;;2.85;2.65;;;14.80;94.80;;;;;;4158427;28;20057;-76
2022/06/03 00:10:20;;;;;;;3.45;2.60;;;14.80;95.10;;;;;;4200445;28;20694;-76
2022/06/03 00:12:53;;;;;;;3.65;3.00;;;14.80;95.10;;;;;;4207099;28;20159;-76
2022/06/03 00:15:20;;;;;;;2.55;2.35;;;14.80;95.40;;;;;;4211011;28;20099;-76
2022/06/03 00:18:03;;;;;;;4.53;2.95;;;14.70;95.60;;;;;;4208141;28;20159;-76
2022/06/03 00:20:05;;;;;;;3.08;2.78;;;14.70;95.70;;;;;;4203331;28;20061;-76
2022/06/03 00:22:48;;;;;;;3.72;2.90;;;14.70;95.80;;;;;;4208210;28;20060;-76
2022/06/03 00:25:04;;;;;;;3.85;3.55;;;14.70;96.10;;;;;;4204781;28;20057;-76
2022/06/03 00:27:25;;;;;;;2.95;2.75;;;14.70;96.20;;;;;;4204325;28;20088;-76
2022/06/03 00:29:36;;;;;;;4.85;3.67;;;14.70;96.20;;;;;;4207016;28;20913;-76
2022/06/03 00:32:02;;;;;;;9.60;5.43;;;14.60;96.60;;;;;;4207018;28;20056;-76
2022/06/03 00:34:16;;;;;;;12.15;8.95;;;14.60;96.90;;;;;;4207711;28;20054;-76
2022/06/03 00:36:46;;;;;;;8.27;7.47;;;14.60;97.00;;;;;;4205618;28;20065;-76
2022/06/03 00:39:00;;;;;;;5.38;4.88;;;14.60;97.10;;;;;;4205151;28;20083;-76
2022/06/03 00:41:41;;;;;;;4.57;4.25;;;14.60;97.60;;;;;;4205114;28;20110;-76
2022/06/03 00:43:55;;;;;;;5.68;5.20;;;14.60;97.40;;;;;;4178254;28;20069;-76
2022/06/03 00:46:24;;;;;;;7.65;6.75;;;14.60;97.50;;;;;;4205675;28;20172;-76
2022/06/03 00:48:42;;;;;;;6.45;5.80;;;14.60;97.90;;;;;;4206607;28;20171;-76
2022/06/03 00:50:46;;;;;;;5.00;4.70;;;14.60;98.00;;;;;;4200075;28;20168;-76
2022/06/03 00:53:16;;;;;;;6.32;4.90;;;14.60;98.00;;;;;;4207577;28;20067;-76
2022/06/03 00:55:50;;;;;;;4.00;3.70;;;14.50;98.10;;;;;;4207375;28;20172;-76
2022/06/03 00:58:04;;;;;;;3.75;3.45;;;14.50;98.30;;;;;;4207541;28;20071;-76
2022/06/03 01:00:08;;;;;;;3.67;3.10;;;14.50;98.40;;;;;;4210227;28;20092;-77
2022/06/03 01:02:41;;;;;;;3.67;3.28;;;14.50;98.70;;;;;;4204733;28;20108;-76
2022/06/03 01:05:01;;;;;;;4.07;2.72;;;14.50;99.00;;;;;;4208926;28;20061;-76
2022/06/03 01:07:11;;;;;;;3.15;2.95;;;14.50;98.80;;;;;;4209982;28;20723;-77
2022/06/03 01:09:49;;;;;;;3.38;3.03;;;14.50;98.90;;;;;;4212208;28;20164;-77
2022/06/03 01:12:27;;;;;;;3.20;3.00;;;14.50;98.80;;;;;;4192153;28;20902;-77
2022/06/03 01:15:07;;;;;;;3.03;2.72;;;14.50;99.00;;;;;;4211720;28;20057;-76
2022/06/03 01:17:15;;;;;;;3.00;2.60;;;14.50;99.20;;;;;;4205159;28;20223;-76
2022/06/03 01:19:39;;;;;;;3.15;2.95;;;14.40;99.50;;;;;;4208731;28;20095;-76
2022/06/03 01:22:04;;;;;;;2.92;2.47;;;14.40;99.60;;;;;;4220022;28;20155;-77
2022/06/03 01:24:43;;;;;;;4.85;3.00;;;14.40;99.60;;;;;;4213351;28;20170;-76
2022/06/03 01:27:11;;;;;;;2.53;2.33;;;14.40;99.60;;;;;;4212489;28;20056;-77
2022/06/03 01:29:37;;;;;;;2.90;2.70;;;14.40;99.30;;;;;;4204832;28;20068;-76
2022/06/03 01:32:03;;;;;;;3.58;2.67;;;14.40;99.50;;;;;;4205144;28;20081;-77
2022/06/03 01:34:18;;;;;;;3.55;2.83;;;14.30;99.80;;;;;;4215312;28;20278;-77
2022/06/03 01:36:38;;;;;;;2.90;2.70;;;14.40;99.90;;;;;;4205398;28;20063;-77
2022/06/03 01:39:01;;;;;;;2.77;2.57;;;14.30;99.90;;;;;;4211526;28;20656;-76
2022/06/03 01:41:37;;;;;;;3.42;2.75;;;14.30;99.90;;;;;;4209866;28;21285;-77
2022/06/03 01:44:12;;;;;;;2.40;2.25;;;14.30;99.90;;;;;;4208126;28;20048;-77
2022/06/03 01:46:53;;;;;;;2.67;2.47;;;14.30;99.90;;;;;;4213577;28;20051;-76
2022/06/03 01:49:01;;;;;;;;;;;14.30;99.90;;;;;;4209648;28;20066;-75
2022/06/03 01:51:30;;;;;;;3.17;2.55;;;14.30;99.90;;;;;;4209287;28;19928;-75
2022/06/03 01:54:11;;;;;;;3.13;2.88;;;14.30;99.90;;;;;;4210866;28;20131;-75
2022/06/03 01:56:44;;;;;;;3.83;2.40;;;14.20;99.90;;;;;;4216844;28;20060;-76
2022/06/03 01:59:23;;;;;;;3.63;2.80;;;14.20;99.90;;;;;;4202254;28;20432;-75
2022/06/03 02:02:05;;;;;;;3.22;3.03;;;14.30;99.90;;;;;;4214010;28;20159;-75
2022/06/03 02:04:07;;;;;;;4.65;2.63;;;14.20;99.90;;;;;;4204319;28;20061;-76
2022/06/03 02:06:38;;;;;;;4.05;2.55;;;14.20;99.90;;;;;;4207637;28;20060;-76
2022/06/03 02:09:16;;;;;;;2.65;2.45;;;14.20;99.90;;;;;;4212036;28;20357;-76
2022/06/03 02:11:30;;;;;;;3.50;2.58;;;14.20;99.90;;;;;;4208385;28;20102;-76
2022/06/03 02:14:08;;;;;;;2.60;2.40;;;14.20;99.90;;;;;;4200238;28;20143;-76
2022/06/03 02:16:54;;;;;;;2.78;2.58;;;14.20;99.90;;;;;;4206339;28;20160;-76
2022/06/03 02:19:11;;;;;;;3.05;2.85;;;14.20;99.90;;;;;;4130297;28;20101;-76
2022/06/03 02:21:38;;;;;;;2.65;2.45;;;14.20;99.90;;;;;;4144041;28;20129;-76
2022/06/03 02:23:55;;;;;;;2.75;2.55;;;14.20;99.90;;;;;;4156830;28;20064;-76
2022/06/03 02:26:40;;;;;;;2.60;2.40;;;14.10;99.90;;;;;;4199984;28;20787;-76
2022/06/03 02:28:48;;;;;;;2.30;2.15;;;14.10;99.90;;;;;;4212007;28;20080;-76
2022/06/03 02:31:08;;;;;;;2.85;2.65;;;14.00;99.90;;;;;;4209698;28;20939;-75
2022/06/03 02:33:30;;;;;;;2.80;2.60;;;14.10;99.90;;;;;;4210332;28;20060;-75
2022/06/03 02:35:31;;;;;;;;;;;14.00;99.90;;;;;;4221971;28;20208;-75
2022/06/03 02:37:52;;;;;;;2.40;2.30;;;14.00;99.90;;;;;;4208822;28;19935;-76
2022/06/03 02:40:09;;;;;;;3.05;2.85;;;13.90;99.90;;;;;;4210348;28;20053;-75
2022/06/03 02:42:36;;;;;;;3.17;2.88;;;13.90;99.90;;;;;;4219591;28;20057;-75
2022/06/03 02:45:41;;;;;;;2.67;2.47;;;13.90;99.90;;;;;;4204816;28;20138;-75
2022/06/03 02:48:04;;;;;;;3.05;2.85;;;13.90;99.90;;;;;;4208525;28;20882;-75
2022/06/03 02:50:22;;;;;;;3.10;2.83;;;13.90;99.90;;;;;;4208678;28;20057;-76
2022/06/03 02:52:46;;;;;;;2.70;2.38;;;13.80;99.90;;;;;;4211196;28;20060;-75
2022/06/03 02:55:09;;;;;;;4.57;2.53;;;13.90;99.90;;;;;;4201112;28;21128;-76
2022/06/03 02:57:40;;;;;;;5.40;4.90;;;13.90;99.90;;;;;;4206248;28;20056;-76
2022/06/03 03:00:09;;;;;;;7.70;5.03;;;13.90;99.90;;;;;;4211828;28;20060;-75
2022/06/03 03:02:23;;;;;;;4.95;4.55;;;13.90;99.90;;;;;;4210077;28;20053;-75
2022/06/03 03:04:27;;;;;;;6.65;6.05;;;14.00;99.90;;;;;;4210072;28;20060;-76
2022/06/03 03:06:50;;;;;;;5.30;4.90;;;14.00;99.90;;;;;;4207873;28;20874;-76
2022/06/03 03:09:35;;;;;;;4.30;4.00;;;14.00;99.90;;;;;;4203242;28;20772;-76
2022/06/03 03:11:45;;;;;;;6.00;5.40;;;14.10;99.90;;;;;;4210179;28;20756;-76
2022/06/03 03:14:09;;;;;;;6.47;5.88;;;14.00;99.90;;;;;;4207978;28;20159;-76
2022/06/03 03:16:26;;;;;;;5.40;4.93;;;14.00;99.90;;;;;;4209091;28;20071;-75
2022/06/03 03:19:08;;;;;;;4.32;4.03;;;14.00;99.90;;;;;;4204349;28;20057;-76
2022/06/03 03:21:32;;;;;;;3.42;2.85;;;14.00;99.90;;;;;;4195146;28;20103;-75
2022/06/03 03:23:46;;;;;;;4.35;3.95;;;14.10;99.90;;;;;;4207754;28;20890;-76
2022/06/03 03:25:57;;;;;;;14.70;10.80;;;14.10;99.90;;;;;;4201639;28;20218;-76
2022/06/03 03:28:28;;;;;;;8.98;8.07;;;14.10;99.90;;;;;;4213149;28;20037;-76
2022/06/03 03:30:37;;;;;;;7.00;5.15;;;14.10;99.90;;;;;;4173281;28;20057;-76
2022/06/03 03:32:40;;;;;;;4.85;4.45;;;14.10;99.90;;;;;;4209746;28;20088;-75
2022/06/03 03:35:02;;;;;;;3.85;3.47;;;14.10;99.90;;;;;;4204762;28;20059;-75
2022/06/03 03:37:24;;;;;;;6.72;6.22;;;14.00;99.90;;;;;;4208518;28;20100;-75
2022/06/03 03:40:01;;;;;;;8.15;5.68;;;14.00;99.90;;;;;;4206509;28;20134;-75
2022/06/03 03:42:37;;;;;;;4.72;4.20;;;14.00;99.90;;;;;;4205794;28;20056;-75
2022/06/03 03:45:10;;;;;;;4.60;4.20;;;14.00;99.90;;;;;;4198757;28;20061;-76
2022/06/03 03:47:40;;;;;;;4.63;4.13;;;13.90;99.90;;;;;;4201776;28;20835;-75
2022/06/03 03:49:54;;;;;;;4.53;4.13;;;14.00;99.90;;;;;;4214102;28;20126;-76
2022/06/03 03:52:18;;;;;;;4.68;4.28;;;14.00;99.90;;;;;;4212819;28;20172;-75
2022/06/03 03:54:41;;;;;;;5.80;4.25;;;14.00;99.90;;;;;;4208228;28;20463;-75
2022/06/03 03:56:51;;;;;;;3.95;3.72;;;14.00;99.90;;;;;;4209154;28;20093;-76
2022/06/03 03:59:22;;;;;;;4.32;3.85;;;14.00;99.90;;;;;;4205270;28;20059;-75
2022/06/03 04:01:33;;;;;;;3.67;3.33;;;13.90;99.90;;;;;;4215648;28;20087;-76
2022/06/03 04:03:51;;;;;;;;;;;13.90;99.90;;;;;;4207171;28;20056;-75
2022/06/03 04:06:30;;;;;;;4.75;4.03;;;13.80;99.90;;;;;;4212053;28;19928;-75
2022/06/03 04:09:06;;;;;;;5.60;3.90;;;13.90;99.90;;;;;;4219969;28;20154;-76
2022/06/03 04:11:44;;;;;;;3.20;3.00;;;13.90;99.90;;;;;;4208654;28;20139;-76
2022/06/03 04:14:24;;;;;;;3.58;3.28;;;13.90;99.90;;;;;;4177250;28;20064;-75
2022/06/03 04:16:58;;;;;;;3.47;3.17;;;13.90;99.90;;;;;;4203887;28;20645;-76
2022/06/03 04:19:21;;;;;;;3.53;3.05;;;13.90;99.90;;;;;;4206339;28;20103;-76
2022/06/03 04:21:34;;;;;;;3.83;3.42;;;13.90;99.90;;;;;;4203543;28;20037;-76
2022/06/03 04:24:03;;;;;;;3.35;3.10;;;14.00;99.90;;;;;;4203668;28;20076;-76
2022/06/03 04:26:32;;;;;;;4.82;3.42;;;14.00;99.90;;;;;;4204945;28;20080;-76
2022/06/03 04:28:37;;;;;;;6.07;3.78;;;14.00;99.90;;;;;;4204578;28;20056;-76
2022/06/03 04:31:10;;;;;;;15.35;5.53;;;14.10;99.90;;;;;;4208651;28;20584;-75
2022/06/03 04:33:59;;;;;;;9.43;4.88;;;14.10;99.90;;;;;;4208000;28;20057;-75
2022/06/03 04:36:34;;;;;;;7.07;3.47;;;14.20;99.90;;;;;;4216508;28;20060;-74
2022/06/03 04:39:28;;;;;;;5.78;4.03;;;14.30;99.90;;;;;;4208740;28;20061;-76
2022/06/03 04:42:07;;;;;;;9.43;4.20;;;14.40;99.90;;;;;;4115222;28;20805;-76
2022/06/03 04:44:33;;;;;;;5.38;4.10;;;14.40;99.90;;;;;;4131649;28;20946;-75
2022/06/03 04:46:47;;;;;;;5.63;4.43;;;14.50;99.90;;;;;;4158701;28;20064;-77
2022/06/03 04:49:20;;;;;;;5.88;5.38;;;14.70;99.90;;;;;;4213622;28;20092;-77
2022/06/03 04:51:41;;;;;;;9.63;5.10;;;14.80;99.90;;;;;;4206112;28;20060;-76
2022/06/03 04:54:06;;;;;;;5.75;5.15;;;15.00;99.90;;;;;;4214959;28;20068;-76
2022/06/03 04:56:21;;;;;;;5.38;4.88;;;15.10;99.90;;;;;;4201922;28;20103;-76
2022/06/03 04:58:41;;;;;;;5.75;4.88;;;15.30;99.80;;;;;;4214101;28;20056;-76
2022/06/03 05:01:04;;;;;;;5.78;5.13;;;15.50;99.20;;;;;;4213913;28;20195;-76
2022/06/03 05:03:35;;;;;;;4.63;4.30;;;15.60;97.80;;;;;;4211428;28;20186;-77
2022/06/03 05:06:29;;;;;;;4.75;4.35;;;15.70;97.20;;;;;;4209024;28;20179;-77
2022/06/03 05:09:07;;;;;;;4.63;4.25;;;15.80;97.40;;;;;;4212136;28;20134;-76
2022/06/03 05:11:49;;;;;;;4.43;4.07;;;15.90;96.50;;;;;;4211536;28;20175;-76
2022/06/03 05:14:26;;;;;;;5.72;3.75;;;16.00;96.50;;;;;;4213383;28;20901;-76
2022/06/03 05:16:47;;;;;;;4.30;4.00;;;16.20;96.30;;;;;;4207968;28;20060;-76
2022/06/03 05:19:08;;;;;;;4.88;3.97;;;16.30;95.90;;;;;;4209632;28;20049;-77
2022/06/03 05:21:44;;;;;;;4.22;3.70;;;16.40;95.60;;;;;;4220014;28;20099;-77
2022/06/03 05:24:00;;;;;;;3.65;3.45;;;16.50;95.40;;;;;;4214887;28;20064;-76
2022/06/03 05:26:23;;;;;;;4.18;3.72;;;16.50;95.20;;;;;;4211139;28;20052;-76
2022/06/03 05:29:06;;;;;;;4.28;3.88;;;16.60;95.00;;;;;;4219037;28;20045;-76
2022/06/03 05:31:27;;;;;;;4.43;3.92;;;16.70;95.20;;;;;;4213631;28;20134;-75
2022/06/03 05:33:50;;;;;;;3.90;3.60;;;16.60;95.20;;;;;;4211042;28;20263;-76
2022/06/03 05:36:10;;;;;;;4.28;3.88;;;16.70;95.20;;;;;;4212506;28;20071;-75
2022/06/03 05:38:34;;;;;;;6.93;4.13;;;16.70;95.10;;;;;;4211172;28;20880;-75
2022/06/03 05:40:40;;;;;;;4.50;4.10;;;16.80;95.30;;;;;;4215857;28;20187;-75
2022/06/03 05:43:04;;;;;;;4.40;4.00;;;16.90;94.90;;;;;;4214944;28;20057;-75
2022/06/03 05:45:42;;;;;;;3.83;3.53;;;17.00;95.00;;;;;;4199522;28;20681;-75
2022/06/03 05:48:17;;;;;;;3.90;3.60;;;17.30;94.60;;;;;;4198996;28;20555;-75
2022/06/03 05:50:42;;;;;;;4.60;3.72;;;17.40;94.20;;;;;;4200263;28;20061;-75
2022/06/03 05:53:48;;;;;;;4.38;3.97;;;17.70;93.60;;;;;;4198566;28;20057;-75
2022/06/03 05:56:17;;;;;;;3.50;3.20;;;17.70;92.60;;;;;;4131513;28;20952;-75
2022/06/03 05:58:46;;;;;;;7.53;3.85;;;17.80;92.60;;;;;;4144233;28;20236;-75
2022/06/03 06:01:09;;;;;;;3.85;3.40;;;17.90;92.60;;;;;;4184984;28;20804;-76
2022/06/03 06:03:40;;;;;;;3.40;3.10;;;18.00;92.60;;;;;;4203144;28;20870;-75
2022/06/03 06:05:49;;;;;;;4.47;3.50;;;18.10;92.30;;;;;;4198821;28;20069;-75
2022/06/03 06:08:18;;;;;;;3.38;3.10;;;18.20;92.20;;;;;;4207874;28;20061;-75
2022/06/03 06:10:47;;;;;;;3.72;3.30;;;18.40;91.80;;;;;;4208537;28;20143;-75
2022/06/03 06:13:27;;;;;;;3.53;3.20;;;18.60;91.20;;;;;;4202562;28;20111;-75
2022/06/03 06:15:57;;;;;;;3.85;3.47;;;18.60;90.60;;;;;;4206415;28;20048;-76
2022/06/03 06:17:58;;;;;;;3.78;3.47;;;18.70;90.50;;;;;;4214580;28;20891;-75
2022/06/03 06:20:36;;;;;;;3.47;3.25;;;18.80;89.80;;;;;;4215835;28;20067;-75
2022/06/03 06:22:46;;;;;;;3.53;3.22;;;18.70;90.10;;;;;;4206330;28;20053;-74
2022/06/03 06:25:06;;;;;;;2.75;2.55;;;18.80;90.10;;;;;;4211713;28;20867;-74
2022/06/03 06:27:44;;;;;;;2.77;2.57;;;19.00;90.10;;;;;;4215875;28;20053;-75
2022/06/03 06:30:05;;;;;;;2.97;2.67;;;19.20;89.40;;;;;;4213963;28;20159;-75
2022/06/03 06:32:32;;;;;;;3.00;2.75;;;19.50;88.40;;;;;;4217286;28;20067;-74
2022/06/03 06:35:07;;;;;;;2.72;2.53;;;19.60;88.00;;;;;;4196582;28;20056;-74
2022/06/03 06:37:37;;;;;;;3.55;3.20;;;19.80;86.70;;;;;;4208201;28;20053;-75
2022/06/03 06:40:07;;;;;;;2.85;2.65;;;19.90;84.90;;;;;;4219875;28;20056;-74
2022/06/03 06:42:27;;;;;;;3.13;2.83;;;19.90;85.10;;;;;;4220175;28;20088;-76
2022/06/03 06:45:06;;;;;;;4.93;3.20;;;19.90;84.70;;;;;;4211298;28;20084;-73
2022/06/03 06:47:14;;;;;;;2.95;2.75;;;19.90;84.60;;;;;;4207048;28;20064;-73
2022/06/03 06:49:58;;;;;;;2.50;2.30;;;20.00;84.80;;;;;;4205156;28;20064;-72
2022/06/03 06:52:23;;;;;;;2.70;2.50;;;20.00;85.10;;;;;;4174113;28;20160;-73
2022/06/03 06:54:51;;;;;;;3.47;3.15;;;20.10;85.20;;;;;;4207798;28;20056;-73
2022/06/03 06:57:06;;;;;;;3.90;3.03;;;20.20;84.40;;;;;;4213969;28;20189;-73
2022/06/03 06:59:14;;;;;;;4.63;2.95;;;20.30;83.50;;;;;;4214184;28;20063;-73
2022/06/03 07:01:41;;;;;;;5.38;3.15;;;20.30;83.10;;;;;;4213272;28;20057;-73
2022/06/03 07:04:04;;;;;;;3.33;3.08;;;20.30;82.10;;;;;;4212440;28;20056;-73
2022/06/03 07:06:19;;;;;;;3.28;2.50;;;20.30;82.70;;;;;;4209372;28;20143;-73
2022/06/03 07:08:22;;;;;;;3.00;2.70;;;20.40;82.00;;;;;;4215148;28;20060;-73
2022/06/03 07:10:33;;;;;;;3.03;2.88;;;20.50;82.30;;;;;;4214005;28;20052;-72
2022/06/03 07:12:49;;;;;;;2.70;2.50;;;20.60;81.60;;;;;;4207434;28;20616;-73
2022/06/03 07:15:08;;;;;;;3.40;3.10;;;20.60;81.40;;;;;;4214711;28;20057;-73
2022/06/03 07:20:09;;;;;;;3.13;2.92;;;20.70;82.30;;;;;;4204813;28;20064;-73
2022/06/03 07:22:10;;;;;;;;;;;20.80;81.50;;;;;;4204602;28;20060;-75
2022/06/03 07:24:20;;;;;;;3.55;3.20;;;21.00;81.50;;;;;;4213021;28;19929;-73
2022/06/03 07:26:35;;;;;;;4.13;2.55;;;21.10;80.10;;;;;;4210698;28;20147;-73
2022/06/03 07:28:48;;;;;;;3.03;2.33;;;21.20;79.40;;;;;;4211922;28;20064;-74
2022/06/03 07:31:06;;;;;;;2.72;2.28;;;21.30;80.30;;;;;;4215071;28;20171;-73
2022/06/03 07:33:14;;;;;;;3.55;3.25;;;21.30;79.60;;;;;;4207594;28;20061;-73
2022/06/03 07:35:30;;;;;;;2.40;2.30;;;21.40;79.10;;;;;;4214091;28;20052;-73
2022/06/03 07:37:44;;;;;;;3.53;2.72;;;21.40;79.80;;;;;;4209511;28;20118;-73
2022/06/03 07:39:49;;;;;;;3.30;3.00;;;21.40;80.30;;;;;;4212277;28;20143;-73
2022/06/03 07:42:04;;;;;;;4.25;2.65;;;21.60;79.00;;;;;;4205262;28;20056;-73
2022/06/03 07:44:15;;;;;;;3.53;2.40;;;21.80;79.20;;;;;;4209958;28;20087;-73
2022/06/03 07:46:23;;;;;;;;;;;21.90;78.60;;;;;;4208530;28;20044;-72
2022/06/03 07:48:29;;;;;;;2.60;2.40;;;22.00;78.00;;;;;;4205810;28;19987;-72
2022/06/03 07:50:35;;;;;;;2.42;2.22;;;22.10;77.60;;;;;;4204684;28;20056;-73
2022/06/03 07:52:50;;;;;;;2.90;2.40;;;22.20;78.20;;;;;;4217264;28;20057;-73
2022/06/03 07:54:55;;;;;;;2.70;1.95;;;22.30;77.40;;;;;;4217700;28;20053;-74
2022/06/03 07:57:03;;;;;;;3.15;2.80;;;22.30;78.20;;;;;;4210354;28;20227;-74
2022/06/03 07:59:13;;;;;;;5.80;2.95;;;22.30;77.90;;;;;;4214576;28;20064;-74
2022/06/03 08:01:25;;;;;;;2.70;2.50;;;22.30;77.50;;;;;;4214805;28;20060;-74
2022/06/03 08:03:35;;;;;;;3.53;2.50;;;22.20;78.20;;;;;;4196285;28;20057;-74
2022/06/03 08:05:37;;;;;;;3.92;2.70;;;22.20;77.40;;;;;;4201951;28;20053;-74
2022/06/03 08:12:32;;;;;;;3.75;2.50;;;22.40;76.40;;;;;;4209882;28;20052;-74
2022/06/03 08:14:33;;;;;;;2.60;2.45;;;22.50;76.40;;;;;;4205108;28;20840;-74
2022/06/03 08:16:42;;;;;;;3.33;3.03;;;22.50;77.00;;;;;;4209335;28;20856;-73
2022/06/03 08:18:44;;;;;;;2.88;2.60;;;22.50;76.80;;;;;;4212858;28;20170;-73
2022/06/03 08:20:57;;;;;;;5.05;3.00;;;22.40;76.40;;;;;;4214586;28;20806;-73
2022/06/03 08:22:59;;;;;;;6.00;3.33;;;22.50;76.10;;;;;;4209040;28;20093;-73
2022/06/03 08:25:01;;;;;;;3.10;2.80;;;22.60;76.10;;;;;;4198213;28;20061;-73
2022/06/03 08:27:07;;;;;;;2.53;2.33;;;22.60;76.00;;;;;;4201126;28;20061;-74
2022/06/03 08:29:19;;;;;;;4.68;2.65;;;22.70;76.70;;;;;;4213816;28;20147;-73
2022/06/03 08:31:23;;;;;;;4.43;2.50;;;22.80;74.90;;;;;;4214230;28;20057;-74
2022/06/03 08:33:33;;;;;;;5.03;2.65;;;22.90;74.10;;;;;;4206217;28;20061;-74
2022/06/03 08:35:38;;;;;;;4.78;2.40;;;22.90;74.00;;;;;;4205044;28;20837;-74
2022/06/03 08:38:03;;;;;;;6.75;2.83;;;23.00;74.90;;;;;;4197532;28;20164;-74
2022/06/03 08:40:26;;;;;;;6.50;2.28;;;23.00;74.80;;;;;;4206034;28;20065;-74
2022/06/03 08:42:36;;;;;;;2.67;2.35;;;23.10;74.50;;;;;;4206293;28;20155;-74
2022/06/03 08:45:02;;;;;;;2.55;2.13;;;23.10;74.50;;;;;;4206227;28;20067;-74
2022/06/03 08:47:39;;;;;;;1.95;1.85;;;23.20;74.70;;;;;;4200344;28;20065;-74
2022/06/03 08:50:02;;;;;;;7.95;2.75;;;23.20;74.10;;;;;;4191364;28;20065;-74
2022/06/03 08:52:10;;;;;;;4.13;2.72;;;23.40;73.60;;;;;;4200526;28;20067;-74
2022/06/03 08:54:15;;;;;;;2.40;2.22;;;23.40;71.90;;;;;;4208699;28;20807;-74
2022/06/03 08:56:24;;;;;;;5.28;2.90;;;23.20;72.90;;;;;;4200834;28;20053;-74
2022/06/03 08:58:54;;;;;;;2.75;2.00;;;23.10;72.20;;;;;;4213786;28;20068;-74
2022/06/03 09:01:05;;;;;;;4.43;2.42;;;23.10;73.40;;;;;;4206569;28;20053;-74
2022/06/03 09:03:13;;;;;;;2.20;1.90;;;23.30;72.80;;;;;;4201241;28;20669;-74
2022/06/03 09:05:29;;;;;;;2.85;2.50;;;23.50;72.40;;;;;;4212916;28;20083;-74
2022/06/03 09:07:39;;;;;;;2.50;2.30;;;23.60;71.70;;;;;;4216133;28;20106;-75
2022/06/03 09:09:41;;;;;;;;;;;23.60;71.30;;;;;;4211436;28;20053;-74
2022/06/03 09:11:54;;;;;;;5.75;2.30;;;23.60;70.70;;;;;;4213854;28;20054;-74
2022/06/03 09:14:08;;;;;;;3.28;2.35;;;23.60;70.10;;;;;;4205839;28;20057;-74
2022/06/03 09:16:14;;;;;;;4.00;2.05;;;23.70;69.90;;;;;;4210735;28;20060;-74
2022/06/03 09:18:47;;;;;;;2.22;1.90;;;23.80;68.50;;;;;;4216869;28;20139;-74
2022/06/03 09:21:01;;;;;;;4.43;2.30;;;23.90;68.70;;;;;;4215491;28;20064;-74
2022/06/03 09:23:13;;;;;;;2.58;1.95;;;24.00;69.10;;;;;;4213585;28;20047;-74
2022/06/03 09:25:18;;;;;;;3.92;2.45;;;24.10;70.40;;;;;;4216996;28;20056;-74
2022/06/03 09:27:21;;;;;;;2.95;1.73;;;24.20;69.30;;;;;;4213840;28;20063;-75
2022/06/03 09:29:24;;;;;;;2.33;2.00;;;24.30;67.30;;;;;;4211961;28;20102;-74
2022/06/03 09:31:26;;;;;;;3.22;1.70;;;24.30;66.80;;;;;;4205107;28;20060;-75
2022/06/03 09:33:30;;;;;;;2.42;2.22;;;24.30;67.20;;;;;;4214689;28;20064;-75
2022/06/03 09:35:34;;;;;;;2.35;2.00;;;24.40;67.50;;;;;;4202775;28;20053;-73
2022/06/03 09:37:42;;;;;;;2.50;1.95;;;24.30;67.70;;;;;;4205803;28;20056;-74
2022/06/03 09:39:46;;;;;;;1.73;1.63;;;24.20;67.30;;;;;;4199712;28;20167;-74
2022/06/03 09:41:55;;;;;;;2.38;1.80;;;24.30;68.60;;;;;;4198752;28;20907;-74
2022/06/03 09:43:58;;;;;;;2.88;1.67;;;24.20;68.00;;;;;;4199818;28;20065;-74
2022/06/03 09:46:02;;;;;;;4.68;2.38;;;24.30;68.80;;;;;;4214815;28;20087;-74
2022/06/03 09:48:04;;;;;;;2.50;1.80;;;24.40;68.70;;;;;;4207396;28;20064;-74
2022/06/03 09:50:07;;;;;;;2.17;2.03;;;24.50;68.90;;;;;;4214552;28;20056;-74
2022/06/03 09:52:12;;;;;;;2.22;1.80;;;24.60;66.80;;;;;;4201221;28;20110;-74
2022/06/03 09:54:22;;;;;;;2.30;2.10;;;24.60;68.00;;;;;;4213161;28;20167;-74
2022/06/03 09:56:29;;;;;;;2.67;2.00;;;24.70;67.10;;;;;;4199196;28;20710;-74
2022/06/03 09:58:33;;;;;;;2.25;2.00;;;24.90;65.50;;;;;;4207289;28;20095;-75
2022/06/03 10:00:43;;;;;;;1.60;1.25;;;25.00;64.90;;;;;;4201820;28;20118;-74
2022/06/03 10:02:45;;;;;;;3.40;2.20;;;25.00;65.60;;;;;;4211289;28;20068;-74
2022/06/03 10:04:47;;;;;;;3.88;1.98;;;24.90;66.10;;;;;;4215870;28;20036;-74
2022/06/03 10:06:51;;;;;;;1.85;1.75;;;24.90;66.40;;;;;;4220169;28;20063;-74
2022/06/03 10:13:39;;;;;;;1.95;1.80;;;25.10;66.10;;;;;;4208573;28;20119;-74
2022/06/03 10:15:44;;;;;;;3.10;1.70;;;25.20;66.10;;;;;;4205414;28;20102;-74
2022/06/03 10:17:48;;;;;;;2.58;2.28;;;25.10;65.70;;;;;;4211175;28;20859;-75
2022/06/03 10:19:51;;;;;;;2.13;1.92;;;25.20;65.80;;;;;;4207554;28;20057;-75
2022/06/03 10:21:55;;;;;;;2.22;2.10;;;25.60;65.20;;;;;;4206632;28;20052;-74
2022/06/03 10:24:05;;;;;;;2.13;1.88;;;25.90;62.60;;;;;;4206933;28;21094;-74
2022/06/03 10:26:18;;;;;;;1.60;1.48;;;25.80;62.40;;;;;;4211424;28;20053;-74
2022/06/03 10:28:19;;;;;;;2.10;1.40;;;25.80;62.30;;;;;;4208343;28;20146;-74
2022/06/03 10:30:27;;;;;;;1.90;1.70;;;26.00;61.60;;;;;;4213896;28;20070;-74
2022/06/03 10:32:29;;;;;;;2.42;1.65;;;26.20;61.40;;;;;;4203009;28;20187;-75
2022/06/03 10:34:41;;;;;;;2.92;1.50;;;26.20;60.70;;;;;;4204871;28;20053;-74
2022/06/03 10:36:49;;;;;;;1.73;1.63;;;26.10;60.50;;;;;;4203104;28;20060;-74
2022/06/03 10:38:51;;;;;;;1.77;1.67;;;26.00;60.80;;;;;;4204595;28;20166;-74
2022/06/03 10:40:54;;;;;;;2.47;1.45;;;26.00;61.70;;;;;;4202134;28;20144;-74
2022/06/03 10:42:59;;;;;;;1.98;1.80;;;26.00;61.80;;;;;;4202570;28;20187;-74
2022/06/03 10:45:00;;;;;;;2.42;1.65;;;26.30;61.20;;;;;;4199076;28;20061;-75
2022/06/03 10:47:13;;;;;;;1.92;1.63;;;26.50;59.90;;;;;;4211209;28;20061;-75
2022/06/03 10:49:15;;;;;;;1.90;1.77;;;26.80;58.70;;;;;;4206429;28;20061;-74
2022/06/03 11:01:15;;;;;;;1.77;1.25;;;26.80;58.10;;;;;;4211169;28;20164;-74
2022/06/03 11:03:31;;;;;;;2.25;1.50;;;26.70;57.60;;;;;;4210437;28;20056;-74
2022/06/03 11:05:37;;;;;;;1.58;1.40;;;26.60;57.20;;;;;;4211210;28;20060;-76
2022/06/03 11:07:40;;;;;;;1.23;1.13;;;26.60;56.50;;;;;;4207630;28;20134;-74
2022/06/03 11:09:53;;;;;;;2.03;1.02;;;26.60;57.00;;;;;;4204061;28;20068;-75
2022/06/03 11:12:04;;;;;;;2.55;1.30;;;26.50;57.00;;;;;;4208933;28;20087;-74
2022/06/03 11:14:25;;;;;;;2.85;1.23;;;26.20;57.20;;;;;;4223851;28;20063;-74
2022/06/03 11:16:27;;;;;;;4.68;1.73;;;25.90;58.60;;;;;;4206717;28;20063;-74
2022/06/03 11:18:32;;;;;;;2.45;1.40;;;25.70;59.30;;;;;;4201701;28;20057;-74
2022/06/03 11:20:39;;;;;;;6.88;2.00;;;25.50;60.10;;;;;;4209868;28;20055;-75
2022/06/03 11:22:43;;;;;;;4.20;1.85;;;25.40;61.10;;;;;;4203319;28;20061;-74
2022/06/03 11:24:51;;;;;;;1.50;1.40;;;25.30;62.10;;;;;;4207906;28;20049;-74
2022/06/03 11:26:53;;;;;;;2.78;1.80;;;25.10;62.20;;;;;;4205827;28;20784;-74
2022/06/03 11:29:02;;;;;;;3.63;1.20;;;25.00;63.10;;;;;;4203130;28;20060;-74
2022/06/03 11:31:25;;;;;;;1.23;1.13;;;24.90;62.90;;;;;;4212748;28;20779;-74
2022/06/03 11:33:39;;;;;;;1.60;1.50;;;24.70;62.70;;;;;;4208057;28;20060;-74
2022/06/03 11:36:06;;;;;;;1.92;1.52;;;24.70;64.10;;;;;;4207570;28;20057;-74
2022/06/03 11:38:12;;;;;;;1.30;1.23;;;24.60;65.40;;;;;;4207320;28;20171;-73
2022/06/03 11:40:29;;;;;;;2.03;1.92;;;24.60;63.90;;;;;;4206844;28;20192;-74
2022/06/03 11:42:46;;;;;;;1.75;1.42;;;24.70;64.50;;;;;;4210557;28;21282;-74
2022/06/03 11:45:00;;;;;;;2.83;1.48;;;24.70;64.60;;;;;;4203042;28;20049;-73
2022/06/03 11:47:09;;;;;;;2.00;1.70;;;24.80;64.80;;;;;;4211664;28;20056;-74
2022/06/03 11:49:15;;;;;;;1.67;1.58;;;24.90;64.10;;;;;;4206572;28;20060;-74
2022/06/03 11:51:17;;;;;;;3.83;1.35;;;25.00;63.40;;;;;;4210967;28;20067;-73
2022/06/03 11:53:25;;;;;;;1.20;1.10;;;25.10;62.40;;;;;;4213067;28;20071;-74
2022/06/03 11:55:30;;;;;;;1.73;1.50;;;25.20;60.90;;;;;;4213890;28;20056;-73
2022/06/03 11:57:57;;;;;;;2.28;1.98;;;25.30;62.70;;;;;;4209683;28;20704;-74
2022/06/03 12:00:05;;;;;;;2.80;1.88;;;25.40;63.20;;;;;;4211857;28;20068;-74
2022/06/03 12:02:08;;;;;;;3.97;1.77;;;25.30;64.30;;;;;;4211987;28;20063;-73
2022/06/03 12:04:26;;;;;;;4.93;2.03;;;25.30;65.00;;;;;;4208785;28;20089;-73
2022/06/03 12:06:42;;;;;;;2.15;1.85;;;25.00;63.90;;;;;;4211881;28;21170;-74
2022/06/03 12:09:12;;;;;;;1.63;1.35;;;25.00;64.80;;;;;;4209990;28;20056;-74
2022/06/03 12:14:25;;;;;;;2.25;2.00;;;25.00;64.70;;;;;;4208390;28;20057;-75
2022/06/03 12:16:27;;;;;;;2.13;2.03;;;25.10;65.10;;;;;;4206713;28;20767;-75
2022/06/03 12:18:35;;;;;;;2.72;2.00;;;25.20;65.70;;;;;;4222095;28;20056;-75
2022/06/03 12:20:47;;;;;;;2.22;1.85;;;25.40;64.30;;;;;;4213935;28;20111;-75
2022/06/03 12:22:49;;;;;;;1.90;1.70;;;25.60;64.50;;;;;;4209047;28;20060;-76
2022/06/03 12:25:06;;;;;;;3.03;2.30;;;25.80;64.50;;;;;;4210599;28;20056;-76
2022/06/03 12:27:15;;;;;;;3.75;1.90;;;25.90;64.20;;;;;;4208603;28;20063;-76